Time;durP1;ratioP1;P1;durP2;ratioP2;P2;SDS_P1;SDS_P2;PMS_P1;PMS_P2;Temp;Humidity;BMP_temperature;BMP_pressure;BME280_temperature;BME280_humidity;BME280_pressure;Samples;Min_cycle;Max_cycle;Signal;HPM_P1;HPM_P2
2022/04/13 00:00:17;;;;;;;11.52;8.52;;;15.90;68.70;;;;;;10906454;32;20063;-71
2022/04/13 00:06:23;;;;;;;9.05;7.35;;;15.80;68.80;;;;;;10905984;32;20058;-69
2022/04/13 00:12:25;;;;;;;9.55;7.53;;;15.70;68.90;;;;;;10905970;32;20073;-70
2022/04/13 00:18:27;;;;;;;8.90;7.47;;;15.60;69.20;;;;;;10902176;32;20027;-69
2022/04/13 00:24:30;;;;;;;11.15;6.40;;;15.60;69.30;;;;;;10906343;32;20023;-70
2022/04/13 00:30:32;;;;;;;13.68;6.40;;;15.40;69.60;;;;;;10905974;32;20049;-69
2022/04/13 00:36:57;;;;;;;19.37;9.25;;;15.40;69.70;;;;;;10905936;32;20399;-69
2022/04/13 00:42:59;;;;;;;8.50;6.55;;;15.50;69.90;;;;;;10905526;32;20023;-69
2022/04/13 00:49:02;;;;;;;7.40;6.25;;;15.60;69.50;;;;;;10901208;32;20016;-70
2022/04/13 00:55:08;;;;;;;9.13;6.40;;;15.60;69.70;;;;;;10905191;32;20057;-69
2022/04/13 01:01:10;;;;;;;9.80;7.90;;;15.60;70.10;;;;;;10887476;32;20023;-69
2022/04/13 01:07:12;;;;;;;10.48;9.00;;;15.50;69.80;;;;;;10904883;32;20031;-69
2022/04/13 01:13:16;;;;;;;11.50;8.15;;;15.50;70.10;;;;;;10926166;27;20057;-69
2022/04/13 01:19:18;;;;;;;13.85;6.78;;;15.40;70.60;;;;;;10979873;32;20304;-69
2022/04/13 01:25:20;;;;;;;6.87;5.72;;;15.30;70.40;;;;;;10979934;32;20358;-69
2022/04/13 01:31:22;;;;;;;9.75;7.97;;;15.20;70.60;;;;;;10979728;32;20026;-69
2022/04/13 01:37:34;;;;;;;7.72;5.75;;;15.10;70.80;;;;;;10979493;32;20035;-69
2022/04/13 01:43:36;;;;;;;6.68;5.32;;;15.10;70.60;;;;;;10979457;32;20433;-69
2022/04/13 01:49:39;;;;;;;7.90;6.47;;;14.90;70.90;;;;;;10977967;32;20031;-69
2022/04/13 01:55:41;;;;;;;8.05;6.05;;;14.90;71.00;;;;;;10962941;32;20026;-69
2022/04/13 02:01:44;;;;;;;8.32;6.37;;;14.90;71.10;;;;;;10979208;32;20022;-69
2022/04/13 02:07:46;;;;;;;8.25;5.93;;;14.80;71.00;;;;;;10979186;32;20019;-69
2022/04/13 02:13:48;;;;;;;17.50;6.97;;;14.80;71.30;;;;;;10978907;32;20062;-69
2022/04/13 02:19:50;;;;;;;8.60;6.28;;;14.80;71.30;;;;;;10978574;32;20030;-70
2022/04/13 02:25:52;;;;;;;6.57;5.00;;;14.70;71.40;;;;;;10978608;32;20057;-69
2022/04/13 02:31:54;;;;;;;7.40;6.10;;;14.70;71.80;;;;;;10977327;32;20015;-69
2022/04/13 02:37:56;;;;;;;9.60;7.55;;;14.70;72.10;;;;;;10978417;32;20062;-70
2022/04/13 02:43:58;;;;;;;9.20;7.62;;;14.70;71.90;;;;;;10974285;32;20031;-70
2022/04/13 02:50:00;;;;;;;12.23;9.80;;;14.70;72.20;;;;;;10975237;32;20061;-69
2022/04/13 02:56:02;;;;;;;11.00;7.97;;;14.70;71.90;;;;;;10983693;32;20331;-69
2022/04/13 03:02:04;;;;;;;12.43;8.60;;;14.60;71.40;;;;;;10980498;32;20407;-69
2022/04/13 03:08:07;;;;;;;19.90;7.37;;;14.60;71.70;;;;;;10983194;32;20026;-69
2022/04/13 03:14:08;;;;;;;7.28;5.55;;;14.60;71.90;;;;;;10979853;32;20027;-69
2022/04/13 03:20:11;;;;;;;9.48;7.40;;;14.50;71.70;;;;;;10983871;32;20107;-69
2022/04/13 03:26:13;;;;;;;9.77;5.90;;;14.40;72.40;;;;;;10970503;32;20045;-69
2022/04/13 03:32:15;;;;;;;12.20;8.90;;;14.30;72.70;;;;;;10983550;32;20088;-69
2022/04/13 03:38:18;;;;;;;6.40;4.82;;;14.30;72.70;;;;;;10979624;32;20319;-69
2022/04/13 03:44:20;;;;;;;7.20;5.35;;;14.20;73.00;;;;;;10983244;32;20027;-69
2022/04/13 03:50:22;;;;;;;12.05;10.02;;;14.20;73.50;;;;;;10982094;32;20291;-69
2022/04/13 03:56:24;;;;;;;8.30;6.57;;;14.20;73.20;;;;;;10982808;32;20018;-69
2022/04/13 04:02:26;;;;;;;9.90;6.00;;;14.10;73.50;;;;;;10982216;32;20091;-69
2022/04/13 04:08:29;;;;;;;7.97;5.60;;;14.10;74.00;;;;;;10982201;32;20030;-69
2022/04/13 04:14:31;;;;;;;7.65;5.68;;;13.90;74.30;;;;;;10982120;32;20342;-69
2022/04/13 04:20:33;;;;;;;9.45;6.55;;;14.00;74.10;;;;;;10981674;32;20076;-70
2022/04/13 04:26:35;;;;;;;12.90;7.65;;;13.80;73.70;;;;;;10981607;32;20034;-69
2022/04/13 04:32:37;;;;;;;14.45;7.93;;;13.80;74.40;;;;;;10981377;32;20283;-69
2022/04/13 04:38:39;;;;;;;12.82;10.30;;;13.70;74.10;;;;;;10981098;32;20061;-69
2022/04/13 04:44:41;;;;;;;12.55;6.70;;;13.70;74.20;;;;;;10980991;32;20018;-69
2022/04/13 04:50:44;;;;;;;9.40;6.35;;;13.70;73.80;;;;;;10963627;32;20054;-69
2022/04/13 04:56:47;;;;;;;8.90;4.43;;;13.50;73.60;;;;;;10980437;32;20050;-69
2022/04/13 05:02:50;;;;;;;9.82;7.75;;;13.50;73.40;;;;;;10980318;32;20104;-69
2022/04/13 05:08:52;;;;;;;8.05;6.30;;;13.50;73.30;;;;;;10980195;32;20026;-69
2022/04/13 05:14:55;;;;;;;11.68;7.68;;;13.70;73.20;;;;;;10977678;32;20018;-70
2022/04/13 05:20:58;;;;;;;12.93;11.60;;;13.80;72.60;;;;;;10977342;32;20052;-70
2022/04/13 05:27:00;;;;;;;10.20;6.43;;;14.10;73.00;;;;;;10976725;32;20125;-69
2022/04/13 05:33:02;;;;;;;10.43;8.40;;;14.30;72.40;;;;;;10976059;32;20018;-70
2022/04/13 05:39:04;;;;;;;10.52;7.43;;;14.30;72.10;;;;;;10977989;32;20018;-69
2022/04/13 05:45:14;;;;;;;7.60;5.50;;;14.50;71.80;;;;;;10964998;32;20045;-69
2022/04/13 05:51:16;;;;;;;9.70;6.90;;;14.30;72.00;;;;;;10960726;32;20023;-69
2022/04/13 05:57:19;;;;;;;15.57;11.12;;;14.40;73.00;;;;;;10974593;32;20408;-69
2022/04/13 06:03:23;;;;;;;9.38;7.55;;;14.70;72.40;;;;;;10968403;32;20088;-69
2022/04/13 06:09:26;;;;;;;12.20;8.93;;;15.00;72.10;;;;;;10949995;32;20046;-70
2022/04/13 06:15:28;;;;;;;17.08;10.05;;;15.00;71.70;;;;;;10974037;32;20410;-69
2022/04/13 06:21:31;;;;;;;13.52;9.88;;;15.20;71.50;;;;;;10973399;32;20053;-69
2022/04/13 06:27:34;;;;;;;9.80;7.30;;;15.30;71.40;;;;;;10982283;32;20031;-70
2022/04/13 06:33:36;;;;;;;10.07;7.25;;;15.40;71.40;;;;;;10984819;32;20362;-70
2022/04/13 06:39:38;;;;;;;14.50;9.43;;;15.30;71.50;;;;;;10982470;32;20061;-70
2022/04/13 06:45:40;;;;;;;16.17;10.80;;;15.30;71.80;;;;;;10980815;32;20022;-70
2022/04/13 06:51:42;;;;;;;17.58;9.40;;;15.30;71.70;;;;;;10982087;32;20354;-70
2022/04/13 06:57:44;;;;;;;10.82;7.40;;;15.60;71.50;;;;;;10983910;32;20026;-70
2022/04/13 07:03:46;;;;;;;10.32;7.68;;;15.50;71.70;;;;;;10978420;32;20100;-70
2022/04/13 07:09:48;;;;;;;9.02;7.18;;;15.60;71.80;;;;;;10954013;32;20060;-70
2022/04/13 07:15:52;;;;;;;18.12;12.15;;;15.70;71.70;;;;;;10941580;32;20037;-70
2022/04/13 07:21:55;;;;;;;10.65;7.00;;;15.80;71.60;;;;;;10944671;32;20027;-69
2022/04/13 07:27:57;;;;;;;11.55;9.05;;;15.60;71.90;;;;;;10958174;32;20341;-70
2022/04/13 07:34:00;;;;;;;13.73;8.05;;;15.60;72.00;;;;;;10960320;32;20324;-69
2022/04/13 07:40:03;;;;;;;11.02;7.93;;;15.80;71.80;;;;;;10944406;32;20066;-71
2022/04/13 07:46:05;;;;;;;11.32;7.22;;;16.00;71.40;;;;;;10972141;32;20027;-70
2022/04/13 07:52:08;;;;;;;9.70;7.60;;;16.00;71.50;;;;;;10981025;32;20057;-70
2022/04/13 07:58:10;;;;;;;9.15;6.65;;;16.10;71.50;;;;;;10969167;32;20034;-69
2022/04/13 08:04:12;;;;;;;12.32;5.97;;;16.20;71.20;;;;;;10929070;32;20104;-69
2022/04/13 08:10:14;;;;;;;15.07;9.13;;;16.20;70.80;;;;;;10930325;32;20031;-69
2022/04/13 08:16:17;;;;;;;8.43;5.28;;;16.30;71.10;;;;;;10930208;32;20065;-69
2022/04/13 08:22:23;;;;;;;13.13;9.00;;;16.20;71.00;;;;;;10943061;32;20026;-69
2022/04/13 08:28:25;;;;;;;7.78;5.47;;;16.30;71.30;;;;;;10942710;32;20425;-70
2022/04/13 08:34:27;;;;;;;9.65;7.03;;;16.40;71.10;;;;;;10942328;32;20046;-70
2022/04/13 08:40:40;;;;;;;9.05;5.40;;;16.60;70.80;;;;;;10942612;32;20065;-70
2022/04/13 08:46:45;;;;;;;12.95;10.30;;;16.70;70.40;;;;;;10942481;32;20049;-70
2022/04/13 08:52:53;;;;;;;12.88;7.53;;;16.80;70.10;;;;;;10940669;32;20054;-70
2022/04/13 08:59:09;;;;;;;11.12;6.50;;;16.80;69.80;;;;;;10941001;32;20057;-70
2022/04/13 09:05:17;;;;;;;8.93;4.72;;;16.80;69.80;;;;;;10940134;32;20035;-70
2022/04/13 09:11:21;;;;;;;12.13;8.52;;;16.80;69.00;;;;;;10941679;32;20030;-70
2022/04/13 09:17:28;;;;;;;7.25;3.97;;;17.00;69.10;;;;;;10551726;27;12783704;-70
2022/04/13 09:23:30;;;;;;;9.10;6.80;;;17.20;69.00;;;;;;10938041;32;20351;-71
2022/04/13 09:29:33;;;;;;;8.48;5.35;;;17.30;68.50;;;;;;10938338;32;20030;-70
2022/04/13 09:35:35;;;;;;;7.87;5.78;;;17.40;68.60;;;;;;10935834;32;20045;-70
2022/04/13 09:41:38;;;;;;;6.55;3.92;;;17.50;67.70;;;;;;10843339;32;20352;-70
2022/04/13 09:47:46;;;;;;;8.80;6.85;;;17.60;67.60;;;;;;10820767;32;20037;-71
2022/04/13 09:53:48;;;;;;;4.70;3.40;;;17.80;65.90;;;;;;10750306;33;20056;-70
2022/04/13 09:59:54;;;;;;;4.75;3.20;;;17.80;65.40;;;;;;10751631;33;20032;-71
2022/04/13 10:05:58;;;;;;;5.87;3.40;;;18.00;65.30;;;;;;10757124;33;20064;-71
2022/04/13 10:12:03;;;;;;;7.57;5.05;;;18.00;64.10;;;;;;10805645;32;20013;-71
2022/04/13 10:18:05;;;;;;;6.45;3.00;;;18.10;64.00;;;;;;10755784;33;20401;-71
2022/04/13 10:24:10;;;;;;;8.13;4.87;;;18.20;63.50;;;;;;10752447;33;20385;-70
2022/04/13 10:30:14;;;;;;;7.80;4.18;;;18.40;62.50;;;;;;10753523;33;20404;-70
2022/04/13 10:36:19;;;;;;;2.05;1.77;;;18.60;62.10;;;;;;10806543;32;20098;-70
2022/04/13 10:42:22;;;;;;;4.15;2.60;;;18.90;62.10;;;;;;10752202;33;20028;-71
2022/04/13 10:48:33;;;;;;;8.05;4.55;;;19.00;61.80;;;;;;10751839;33;20024;-70
2022/04/13 10:54:37;;;;;;;6.35;3.83;;;18.80;60.70;;;;;;10805537;32;20036;-71
2022/04/13 11:00:44;;;;;;;9.30;4.82;;;18.90;61.00;;;;;;10752327;33;20047;-71
2022/04/13 11:06:47;;;;;;;3.47;2.00;;;19.20;61.50;;;;;;10751997;33;20075;-69
2022/04/13 11:12:49;;;;;;;8.45;5.25;;;19.40;60.90;;;;;;10749658;33;20055;-69
2022/04/13 11:19:01;;;;;;;7.75;4.40;;;19.90;59.90;;;;;;10752673;33;20028;-69
2022/04/13 11:25:03;;;;;;;8.23;4.45;;;20.30;57.70;;;;;;10750287;33;20047;-70
2022/04/13 11:31:10;;;;;;;6.97;2.90;;;20.50;56.70;;;;;;10750858;33;20051;-70
2022/04/13 11:37:36;;;;;;;8.02;3.80;;;20.80;56.10;;;;;;10750638;33;20306;-70
2022/04/13 11:43:40;;;;;;;7.95;4.37;;;20.80;55.00;;;;;;10826323;32;20043;-69
2022/04/13 11:50:03;;;;;;;6.30;4.05;;;20.90;54.30;;;;;;10820143;32;20298;-70
2022/04/13 11:56:05;;;;;;;7.57;3.05;;;20.80;53.40;;;;;;10788103;33;20424;-70
2022/04/13 12:02:13;;;;;;;6.07;3.08;;;21.30;54.00;;;;;;10788981;33;20075;-70
2022/04/13 12:08:28;;;;;;;4.10;2.45;;;21.60;52.30;;;;;;10788642;33;20027;-70
2022/04/13 12:14:45;;;;;;;4.82;2.37;;;21.70;52.50;;;;;;10789261;33;20051;-70
2022/04/13 12:20:49;;;;;;;4.07;2.45;;;21.80;52.60;;;;;;10755699;33;20055;-70
2022/04/13 12:26:52;;;;;;;3.35;1.77;;;21.90;53.10;;;;;;10753156;33;20021;-70
2022/04/13 12:32:54;;;;;;;3.90;2.40;;;21.90;53.00;;;;;;10752915;33;20037;-70
2022/04/13 12:38:57;;;;;;;7.43;3.55;;;22.00;52.70;;;;;;10749977;33;20032;-70
2022/04/13 12:45:00;;;;;;;9.15;3.70;;;21.80;52.30;;;;;;10798565;32;20386;-70
2022/04/13 12:51:04;;;;;;;4.32;2.80;;;21.90;52.80;;;;;;10750583;33;20037;-70
2022/04/13 12:57:06;;;;;;;4.40;2.47;;;22.00;52.70;;;;;;10752752;32;20033;-71
2022/04/13 13:03:08;;;;;;;6.62;3.80;;;22.10;52.30;;;;;;10799072;32;20050;-72
2022/04/13 13:09:20;;;;;;;5.45;3.25;;;22.20;52.50;;;;;;10753050;33;20029;-72
2022/04/13 13:15:43;;;;;;;5.28;2.90;;;22.10;52.70;;;;;;10747801;33;20033;-70
2022/04/13 13:22:39;;;;;;;4.07;2.33;;;22.20;52.60;;;;;;10752418;33;20054;-71
2022/04/13 13:28:42;;;;;;;3.20;2.08;;;22.30;51.10;;;;;;10750556;32;20044;-70
2022/04/13 13:35:01;;;;;;;4.00;1.80;;;22.50;50.40;;;;;;10748645;33;20055;-70
2022/04/13 13:41:11;;;;;;;5.90;2.50;;;22.40;49.50;;;;;;10750571;33;20067;-70
2022/04/13 13:47:13;;;;;;;4.22;2.05;;;22.40;48.40;;;;;;10750582;33;20063;-70
2022/04/13 13:53:15;;;;;;;6.00;2.45;;;22.20;49.20;;;;;;10757275;33;20032;-70
2022/04/13 13:59:17;;;;;;;3.08;1.48;;;22.20;49.40;;;;;;10772410;33;20068;-69
2022/04/13 14:05:24;;;;;;;3.75;2.45;;;22.30;49.30;;;;;;10761486;33;20080;-71
2022/04/13 14:11:26;;;;;;;2.75;1.87;;;22.30;48.00;;;;;;10745817;33;20028;-70
2022/04/13 14:17:29;;;;;;;2.87;1.67;;;22.30;48.10;;;;;;10748835;33;20360;-70
2022/04/13 14:23:32;;;;;;;2.85;1.83;;;22.30;47.60;;;;;;10798676;32;20032;-70
2022/04/13 14:29:33;;;;;;;14.98;2.45;;;22.40;48.00;;;;;;10749660;33;20033;-70
2022/04/13 14:35:36;;;;;;;4.82;2.60;;;22.50;48.30;;;;;;10752157;33;20070;-70
2022/04/13 14:41:38;;;;;;;4.62;2.78;;;22.60;48.40;;;;;;10775492;33;20059;-70
2022/04/13 14:47:40;;;;;;;2.70;1.73;;;22.60;47.40;;;;;;10786307;33;20040;-70
2022/04/13 14:53:42;;;;;;;3.95;2.08;;;22.60;47.10;;;;;;10768489;33;20408;-70
2022/04/13 14:59:44;;;;;;;4.10;2.35;;;22.50;46.30;;;;;;10751386;33;20036;-70
2022/04/13 15:05:52;;;;;;;4.80;2.47;;;22.30;45.80;;;;;;10751904;33;20485;-70
2022/04/13 15:11:54;;;;;;;3.17;1.62;;;22.30;46.20;;;;;;10759759;33;20040;-70
2022/04/13 15:17:57;;;;;;;1.77;1.10;;;22.20;46.70;;;;;;10763155;32;20060;-70
2022/04/13 15:23:59;;;;;;;3.78;1.70;;;22.10;47.00;;;;;;10765217;33;20071;-70
2022/04/13 15:30:02;;;;;;;2.00;1.20;;;22.10;47.00;;;;;;10753344;33;20428;-70
2022/04/13 15:36:04;;;;;;;13.48;1.95;;;22.00;46.70;;;;;;10765798;32;20367;-70
2022/04/13 15:42:06;;;;;;;3.40;1.87;;;22.00;47.20;;;;;;10787651;33;20082;-70
2022/04/13 15:48:08;;;;;;;1.45;1.12;;;22.00;47.50;;;;;;10751288;33;20059;-70
2022/04/13 15:54:11;;;;;;;2.87;1.35;;;22.00;47.90;;;;;;10753102;32;20036;-71
2022/04/13 16:00:13;;;;;;;4.85;2.25;;;22.00;48.70;;;;;;10834120;32;20536;-71
2022/04/13 16:06:16;;;;;;;4.18;1.95;;;21.80;48.70;;;;;;10755073;33;20036;-70
2022/04/13 16:12:19;;;;;;;3.20;2.08;;;21.60;49.20;;;;;;10778110;33;20040;-71
2022/04/13 16:18:21;;;;;;;3.45;1.90;;;21.50;49.50;;;;;;10784860;33;20051;-71
2022/04/13 16:24:24;;;;;;;2.08;1.12;;;21.50;50.20;;;;;;10769897;33;20421;-71
2022/04/13 16:30:27;;;;;;;1.73;1.12;;;21.60;50.70;;;;;;10801558;32;20353;-71
2022/04/13 16:36:29;;;;;;;4.32;1.42;;;21.70;50.90;;;;;;10801347;32;20059;-71
2022/04/13 16:42:32;;;;;;;2.00;1.30;;;21.70;51.10;;;;;;10762402;33;20040;-71
2022/04/13 16:48:34;;;;;;;3.03;0.98;;;21.80;51.50;;;;;;10750072;33;20340;-71
2022/04/13 16:54:36;;;;;;;5.75;1.80;;;21.80;51.50;;;;;;10762828;33;20036;-71
2022/04/13 17:00:39;;;;;;;2.55;1.30;;;21.60;52.30;;;;;;10753562;33;20161;-71
2022/04/13 17:06:41;;;;;;;1.40;0.95;;;21.60;52.40;;;;;;10748187;32;20055;-71
2022/04/13 17:12:43;;;;;;;14.27;1.50;;;21.50;52.70;;;;;;10809818;27;20064;-71
2022/04/13 17:18:46;;;;;;;5.28;1.27;;;21.30;53.30;;;;;;11018360;32;20019;-71
2022/04/13 17:24:48;;;;;;;7.43;1.15;;;21.20;53.20;;;;;;10971555;32;20096;-71
2022/04/13 17:30:50;;;;;;;3.30;1.40;;;21.00;53.80;;;;;;10980440;32;20398;-71
2022/04/13 17:36:53;;;;;;;2.20;1.23;;;20.80;54.60;;;;;;10976832;32;20045;-71
2022/04/13 17:42:55;;;;;;;3.67;1.77;;;20.60;55.20;;;;;;10980740;32;20433;-71
2022/04/13 17:48:57;;;;;;;2.05;1.42;;;20.50;55.70;;;;;;10976211;32;20042;-71
2022/04/13 17:54:59;;;;;;;1.70;1.10;;;20.40;56.10;;;;;;10980351;32;20045;-71
2022/04/13 18:01:02;;;;;;;4.53;1.50;;;20.30;56.50;;;;;;10981361;32;20394;-71
2022/04/13 18:07:05;;;;;;;2.17;1.33;;;20.00;56.90;;;;;;10980580;32;20019;-71
2022/04/13 18:13:08;;;;;;;6.20;1.92;;;19.90;57.40;;;;;;10980219;32;20054;-71
2022/04/13 18:19:10;;;;;;;4.95;1.60;;;19.80;57.80;;;;;;10980293;32;20319;-71
2022/04/13 18:25:12;;;;;;;2.42;1.55;;;19.70;58.10;;;;;;10973620;32;20018;-71
2022/04/13 18:31:16;;;;;;;3.58;2.22;;;19.70;58.30;;;;;;10987063;32;20027;-71
2022/04/13 18:37:26;;;;;;;2.85;1.90;;;19.70;58.60;;;;;;10983487;32;20054;-71
2022/04/13 18:43:28;;;;;;;2.85;1.62;;;19.50;58.80;;;;;;10987016;32;20085;-71
2022/04/13 18:49:31;;;;;;;3.50;2.30;;;19.40;59.10;;;;;;10986681;32;20022;-71
2022/04/13 18:55:44;;;;;;;8.48;2.25;;;19.30;59.50;;;;;;10982986;32;20057;-71
2022/04/13 19:01:51;;;;;;;2.83;1.77;;;19.10;59.90;;;;;;10985891;32;20391;-71
2022/04/13 19:07:57;;;;;;;2.95;1.87;;;19.00;60.10;;;;;;10986173;32;20403;-71
2022/04/13 19:13:59;;;;;;;3.15;1.98;;;19.00;60.30;;;;;;10982347;32;20391;-70
2022/04/13 19:20:04;;;;;;;3.05;2.37;;;18.80;60.70;;;;;;10982734;32;20030;-71
2022/04/13 19:26:07;;;;;;;3.87;2.92;;;18.70;60.80;;;;;;10981185;32;20022;-70
2022/04/13 19:32:10;;;;;;;3.33;2.30;;;18.70;60.90;;;;;;10983800;32;20046;-70
2022/04/13 19:38:12;;;;;;;4.78;2.65;;;18.60;61.10;;;;;;10980004;32;20027;-70
2022/04/13 19:44:14;;;;;;;5.35;3.05;;;18.40;61.30;;;;;;10983538;32;20023;-70
2022/04/13 19:50:17;;;;;;;4.62;3.22;;;18.30;61.60;;;;;;10981845;32;20030;-70
2022/04/13 19:56:19;;;;;;;5.15;3.65;;;18.20;61.80;;;;;;10970670;32;20030;-71
2022/04/13 20:02:22;;;;;;;5.18;3.50;;;18.10;62.10;;;;;;10979481;32;20321;-71
2022/04/13 20:08:24;;;;;;;6.05;4.22;;;18.10;62.30;;;;;;10983953;32;20434;-71
2022/04/13 20:14:26;;;;;;;7.57;5.72;;;18.10;62.50;;;;;;10983456;32;20034;-71
2022/04/13 20:20:34;;;;;;;7.87;5.20;;;18.10;62.20;;;;;;10983377;32;20034;-71
2022/04/13 20:26:37;;;;;;;9.77;5.70;;;18.00;62.20;;;;;;10983273;32;20010;-71
2022/04/13 20:32:40;;;;;;;8.77;5.68;;;17.90;62.50;;;;;;10969467;32;20030;-71
2022/04/13 20:38:42;;;;;;;14.23;8.65;;;17.80;62.80;;;;;;10982707;32;20023;-71
2022/04/13 20:44:44;;;;;;;9.68;7.18;;;17.80;62.90;;;;;;10969494;32;20027;-71
2022/04/13 20:50:50;;;;;;;10.10;7.03;;;17.70;63.20;;;;;;10978238;32;20026;-71
2022/04/13 20:56:52;;;;;;;10.75;6.57;;;17.60;63.60;;;;;;10977877;32;20041;-71
2022/04/13 21:02:57;;;;;;;10.10;6.75;;;17.40;63.90;;;;;;10981878;32;20031;-71
2022/04/13 21:08:59;;;;;;;7.78;5.95;;;17.30;64.30;;;;;;10981709;32;20022;-71
2022/04/13 21:15:03;;;;;;;8.63;5.47;;;17.20;64.40;;;;;;10966262;32;20018;-71
2022/04/13 21:21:06;;;;;;;8.55;6.45;;;17.20;64.50;;;;;;10981226;32;20431;-71
2022/04/13 21:27:08;;;;;;;10.23;8.20;;;17.10;64.60;;;;;;10981352;32;20058;-71
2022/04/13 21:33:10;;;;;;;10.52;7.40;;;17.10;64.30;;;;;;10978417;32;20050;-71
2022/04/13 21:39:12;;;;;;;7.45;5.60;;;17.10;65.10;;;;;;10964920;32;20045;-71
2022/04/13 21:45:15;;;;;;;11.02;6.87;;;17.00;65.30;;;;;;10965207;32;20071;-71
2022/04/13 21:51:18;;;;;;;20.90;6.30;;;17.00;65.00;;;;;;11015204;32;20079;-71
2022/04/13 21:57:20;;;;;;;10.10;6.68;;;16.80;65.30;;;;;;11018474;32;20027;-71
2022/04/13 22:03:24;;;;;;;11.63;8.05;;;16.60;65.80;;;;;;11025926;32;20021;-71
2022/04/13 22:09:26;;;;;;;10.63;7.30;;;16.60;65.90;;;;;;11026451;32;20022;-71
2022/04/13 22:15:28;;;;;;;13.55;9.50;;;16.60;66.00;;;;;;11026097;32;20049;-71
2022/04/13 22:21:30;;;;;;;10.05;7.95;;;16.50;66.00;;;;;;11024162;32;20053;-71
2022/04/13 22:27:32;;;;;;;15.48;8.30;;;16.30;66.40;;;;;;11010400;32;20080;-71
2022/04/13 22:33:35;;;;;;;10.60;8.07;;;16.20;66.70;;;;;;11025430;32;20018;-71
2022/04/13 22:39:37;;;;;;;15.15;9.38;;;16.30;66.60;;;;;;11025305;32;20048;-71
2022/04/13 22:45:40;;;;;;;12.18;8.32;;;16.30;66.70;;;;;;11023242;32;20026;-71
2022/04/13 22:51:42;;;;;;;11.40;8.13;;;16.20;66.80;;;;;;11024613;32;20068;-71
2022/04/13 22:57:44;;;;;;;13.18;10.23;;;16.20;66.90;;;;;;11024742;32;20018;-71
2022/04/13 23:03:47;;;;;;;13.45;10.05;;;16.00;67.20;;;;;;11010841;32;20022;-71
2022/04/13 23:09:49;;;;;;;10.85;8.00;;;15.90;67.30;;;;;;11024207;32;20026;-71
2022/04/13 23:15:52;;;;;;;11.75;9.48;;;15.80;67.50;;;;;;11022530;32;20022;-71
2022/04/13 23:21:54;;;;;;;14.98;10.95;;;15.80;67.60;;;;;;11023993;32;20342;-71
2022/04/13 23:28:00;;;;;;;10.85;9.20;;;15.70;67.60;;;;;;11023492;32;20057;-71
2022/04/13 23:34:03;;;;;;;11.80;9.27;;;15.80;67.80;;;;;;11023158;32;20022;-71
2022/04/13 23:40:08;;;;;;;12.57;9.07;;;15.90;68.20;;;;;;11022813;32;20018;-70
2022/04/13 23:46:10;;;;;;;11.35;7.70;;;15.70;67.90;;;;;;11021577;32;20406;-70
2022/04/13 23:52:12;;;;;;;10.88;8.15;;;15.50;68.30;;;;;;11022423;32;20026;-71
2022/04/13 23:58:14;;;;;;;10.98;8.63;;;15.50;68.30;;;;;;11022004;32;20030;-71
